createdAt,value
2022-09-03T00:01:25.423Z,5.75
2022-09-03T00:04:03.331Z,2.25
2022-09-03T00:07:03.791Z,1.30
2022-09-03T00:12:06.329Z,2.38
2022-09-03T00:14:53.982Z,1.10
2022-09-03T00:17:24.925Z,3.25
2022-09-03T00:20:01.883Z,1.85
2022-09-03T00:22:38.437Z,2.05
2022-09-03T00:25:10.458Z,1.60
2022-09-03T00:27:39.289Z,4.00
2022-09-03T00:30:10.230Z,3.72
2022-09-03T00:32:59.553Z,6.43
2022-09-03T00:35:34.535Z,3.17
2022-09-03T00:38:01.525Z,1.48
2022-09-03T00:40:43.957Z,1.05
2022-09-03T00:43:22.223Z,3.72
2022-09-03T00:46:19.493Z,3.58
2022-09-03T00:48:52.124Z,1.98
2022-09-03T00:51:29.238Z,2.95
2022-09-03T00:54:02.311Z,1.30
2022-09-03T00:56:47.615Z,4.15
2022-09-03T00:59:23.007Z,1.10
2022-09-03T01:02:05.966Z,1.45
2022-09-03T01:04:44.094Z,3.90
2022-09-03T01:07:19.704Z,1.67
2022-09-03T01:09:50.264Z,2.08
2022-09-03T01:12:32.666Z,2.08
2022-09-03T01:15:07.381Z,2.45
2022-09-03T01:17:47.083Z,1.80
2022-09-03T01:20:19.616Z,1.90
2022-09-03T01:23:15.255Z,1.13
2022-09-03T01:26:04.639Z,1.20
2022-09-03T01:29:00.338Z,1.95
2022-09-03T01:31:43.190Z,3.20
2022-09-03T01:34:14.408Z,0.90
2022-09-03T01:36:47.435Z,3.25
2022-09-03T01:39:29.758Z,2.17
2022-09-03T01:42:36.007Z,1.70
2022-09-03T01:45:21.383Z,3.47
2022-09-03T01:48:01.682Z,0.85
2022-09-03T01:53:25.200Z,5.88
2022-09-03T01:56:33.412Z,3.00
2022-09-03T01:59:09.913Z,1.63
2022-09-03T02:01:42.321Z,3.47
2022-09-03T02:04:23.213Z,5.10
2022-09-03T02:06:51.526Z,1.15
2022-09-03T02:09:18.770Z,3.63
2022-09-03T02:11:50.891Z,6.15
2022-09-03T02:14:18.101Z,1.02
2022-09-03T02:16:45.012Z,1.10
2022-09-03T02:19:15.759Z,1.90
2022-09-03T02:21:50.483Z,2.90
2022-09-03T02:24:17.361Z,4.63
2022-09-03T02:26:44.106Z,1.58
2022-09-03T02:29:11.247Z,2.03
2022-09-03T02:31:37.950Z,1.23
2022-09-03T02:34:04.810Z,1.45
2022-09-03T02:36:35.914Z,1.40
2022-09-03T02:39:02.622Z,5.05
2022-09-03T02:41:29.306Z,1.83
2022-09-03T02:44:11.097Z,1.40
2022-09-03T02:46:48.126Z,5.00
2022-09-03T02:49:15.067Z,2.15
2022-09-03T02:51:44.086Z,1.40
2022-09-03T02:54:11.934Z,1.25
2022-09-03T02:56:38.585Z,2.05
2022-09-03T02:59:07.780Z,6.85
2022-09-03T03:01:35.425Z,1.20
2022-09-03T03:04:02.280Z,5.18
2022-09-03T03:06:28.994Z,2.08
2022-09-03T03:08:55.919Z,2.00
2022-09-03T03:11:25.084Z,2.88
2022-09-03T03:13:51.973Z,1.33
2022-09-03T03:16:19.092Z,1.58
2022-09-03T03:18:46.361Z,2.95
2022-09-03T03:21:17.442Z,2.03
2022-09-03T03:23:44.359Z,1.35
2022-09-03T03:26:13.502Z,1.52
2022-09-03T03:28:42.364Z,2.85
2022-09-03T03:31:14.040Z,2.03
2022-09-03T03:33:41.443Z,1.40
2022-09-03T03:36:10.483Z,2.08
2022-09-03T03:38:37.787Z,2.47
2022-09-03T03:41:24.413Z,1.80
2022-09-03T03:43:55.319Z,2.00
2022-09-03T03:46:23.441Z,4.57
2022-09-03T03:48:51.271Z,6.80
2022-09-03T03:51:18.760Z,5.03
2022-09-03T03:53:46.122Z,5.07
2022-09-03T03:56:14.865Z,3.67
2022-09-03T03:58:44.010Z,4.65
2022-09-03T04:01:16.753Z,3.15
2022-09-03T04:03:44.046Z,2.30
2022-09-03T04:06:12.914Z,1.75
2022-09-03T04:08:41.701Z,2.25
2022-09-03T04:11:10.795Z,1.48
2022-09-03T04:13:39.506Z,2.55
2022-09-03T04:16:08.474Z,1.83
2022-09-03T04:18:35.612Z,1.95
2022-09-03T04:21:10.808Z,1.77
2022-09-03T04:23:39.792Z,2.28
2022-09-03T04:26:08.178Z,2.15
2022-09-03T04:28:35.394Z,1.80
2022-09-03T04:31:03.906Z,1.60
2022-09-03T04:33:31.441Z,1.80
2022-09-03T04:36:11.268Z,2.92
2022-09-03T04:38:39.827Z,2.83
2022-09-03T04:41:08.422Z,2.25
2022-09-03T04:43:35.243Z,2.03
2022-09-03T04:46:04.409Z,1.90
2022-09-03T04:48:32.533Z,1.70
2022-09-03T04:51:10.294Z,2.22
2022-09-03T04:53:39.271Z,2.72
2022-09-03T04:56:33.579Z,1.75
2022-09-03T04:59:05.880Z,2.75
2022-09-03T05:01:34.475Z,1.60
2022-09-03T05:04:01.842Z,1.58
2022-09-03T05:06:30.035Z,2.38
2022-09-03T05:08:57.197Z,1.83
2022-09-03T05:11:25.300Z,4.30
2022-09-03T05:13:54.359Z,1.70
2022-09-03T05:16:21.886Z,2.60
2022-09-03T05:18:48.579Z,3.15
2022-09-03T05:21:17.892Z,3.15
2022-09-03T05:23:46.921Z,4.97
2022-09-03T05:26:18.645Z,1.85
2022-09-03T05:28:46.135Z,2.83
2022-09-03T05:31:17.973Z,4.55
2022-09-03T05:33:47.073Z,3.78
2022-09-03T05:36:17.459Z,3.97
2022-09-03T05:41:11.955Z,3.72
2022-09-03T05:43:38.954Z,2.53
2022-09-03T05:46:14.119Z,6.18
2022-09-03T05:48:41.300Z,6.57
2022-09-03T05:51:13.009Z,3.42
2022-09-03T05:53:40.379Z,4.60
2022-09-03T05:56:19.011Z,4.00
2022-09-03T05:58:48.106Z,3.50
2022-09-03T06:01:24.848Z,2.67
2022-09-03T06:04:06.025Z,5.53
2022-09-03T06:06:35.100Z,5.43
2022-09-03T06:09:13.683Z,2.67
2022-09-03T06:11:42.533Z,4.00
2022-09-03T06:14:11.810Z,3.60
2022-09-03T06:16:41.121Z,2.63
2022-09-03T06:19:10.798Z,4.50
2022-09-03T06:21:42.934Z,5.47
2022-09-03T06:24:14.803Z,5.20
2022-09-03T06:26:42.863Z,4.55
2022-09-03T06:29:10.749Z,2.33
2022-09-03T06:31:37.995Z,3.92
2022-09-03T06:34:06.085Z,3.78
2022-09-03T06:36:33.412Z,3.17
2022-09-03T06:39:00.279Z,4.65
2022-09-03T06:41:33.015Z,2.63
2022-09-03T06:44:05.638Z,3.28
2022-09-03T06:46:34.886Z,4.03
2022-09-03T06:49:01.867Z,3.97
2022-09-03T06:51:29.804Z,4.78
2022-09-03T06:54:04.913Z,3.28
2022-09-03T06:56:38.882Z,3.25
2022-09-03T06:59:09.569Z,6.07
2022-09-03T07:01:39.294Z,3.13
2022-09-03T07:04:07.344Z,7.38
2022-09-03T07:06:38.727Z,3.58
2022-09-03T07:09:09.515Z,3.25
2022-09-03T07:11:36.893Z,6.75
2022-09-03T07:14:05.071Z,5.88
2022-09-03T07:16:36.838Z,2.85
2022-09-03T07:19:05.335Z,2.83
2022-09-03T07:21:34.144Z,2.55
2022-09-03T07:24:00.885Z,3.10
2022-09-03T07:26:30.525Z,3.25
2022-09-03T07:28:57.868Z,3.33
2022-09-03T07:31:27.559Z,4.03
2022-09-03T07:33:58.796Z,3.28
2022-09-03T07:36:27.719Z,3.00
2022-09-03T07:38:57.170Z,4.60
2022-09-03T07:41:28.797Z,5.50
2022-09-03T07:43:57.056Z,4.85
2022-09-03T07:46:26.450Z,3.65
2022-09-03T07:48:56.962Z,3.83
2022-09-03T07:51:27.738Z,3.55
2022-09-03T07:53:57.585Z,4.20
2022-09-03T07:56:25.646Z,5.82
2022-09-03T07:58:53.035Z,5.00
2022-09-03T08:01:21.565Z,3.63
2022-09-03T08:03:49.839Z,5.75
2022-09-03T08:06:18.730Z,6.82
2022-09-03T08:08:45.755Z,4.07
2022-09-03T08:11:17.714Z,3.78
2022-09-03T08:13:46.261Z,4.78
2022-09-03T08:16:13.735Z,7.45
2022-09-03T08:18:40.450Z,5.05
2022-09-03T08:21:08.841Z,3.50
2022-09-03T08:23:39.754Z,5.00
2022-09-03T08:26:07.702Z,5.38
2022-09-03T08:28:37.867Z,5.22
2022-09-03T08:31:12.955Z,4.40
2022-09-03T08:33:43.068Z,3.70
2022-09-03T08:36:17.103Z,3.65
2022-09-03T08:38:45.476Z,4.72
2022-09-03T08:41:12.029Z,5.35
2022-09-03T08:43:48.662Z,6.47
2022-09-03T08:46:16.558Z,3.53
2022-09-03T08:48:43.215Z,4.25
2022-09-03T08:51:11.267Z,3.80
2022-09-03T08:53:45.573Z,5.90
2022-09-03T08:56:22.160Z,4.78
2022-09-03T08:58:49.178Z,3.55
2022-09-03T09:01:35.190Z,3.92
2022-09-03T09:04:19.424Z,5.65
2022-09-03T09:07:24.804Z,4.10
2022-09-03T09:10:03.935Z,5.88
2022-09-03T09:12:46.332Z,3.75
2022-09-03T09:15:27.655Z,3.33
2022-09-03T09:18:14.851Z,4.30
2022-09-03T09:20:55.154Z,3.53
2022-09-03T09:23:27.317Z,2.85
2022-09-03T09:25:57.188Z,4.68
2022-09-03T09:28:30.695Z,3.00
2022-09-03T09:30:57.726Z,5.28
2022-09-03T09:33:25.554Z,3.33
2022-09-03T09:35:52.347Z,2.33
2022-09-03T09:38:34.151Z,4.22
2022-09-03T09:41:15.449Z,3.38
2022-09-03T09:43:42.845Z,2.88
2022-09-03T09:46:14.577Z,2.88
2022-09-03T09:48:50.371Z,2.33
2022-09-03T09:51:31.159Z,2.25
2022-09-03T09:54:11.028Z,2.60
2022-09-03T09:56:37.995Z,2.78
2022-09-03T09:59:09.943Z,2.63
2022-09-03T10:01:39.553Z,3.67
2022-09-03T10:04:09.264Z,3.00
2022-09-03T10:06:53.994Z,3.03
2022-09-03T10:09:31.138Z,3.17
2022-09-03T10:12:24.932Z,4.45
2022-09-03T10:14:57.632Z,2.70
2022-09-03T10:17:36.770Z,3.08
2022-09-03T10:20:28.177Z,3.22
2022-09-03T10:23:15.832Z,4.97
2022-09-03T10:25:51.974Z,3.05
2022-09-03T10:28:18.781Z,3.30
2022-09-03T10:31:13.838Z,3.30
2022-09-03T10:33:57.270Z,4.30
2022-09-03T10:36:36.036Z,2.95
2022-09-03T10:39:10.887Z,3.13
2022-09-03T10:42:06.630Z,3.97
2022-09-03T10:45:06.924Z,6.68
2022-09-03T10:50:32.289Z,3.53
2022-09-03T10:53:12.428Z,2.88
2022-09-03T10:55:45.347Z,2.35
2022-09-03T10:58:21.138Z,2.50
2022-09-03T11:00:57.468Z,2.28
2022-09-03T11:03:44.978Z,2.20
2022-09-03T11:06:19.341Z,2.25
2022-09-03T11:08:53.733Z,3.95
2022-09-03T11:11:43.048Z,2.03
2022-09-03T11:14:12.904Z,2.37
2022-09-03T11:16:46.634Z,2.45
2022-09-03T11:19:16.963Z,2.25
2022-09-03T11:21:44.139Z,2.45
2022-09-03T11:24:18.390Z,3.78
2022-09-03T11:27:07.432Z,2.47
2022-09-03T11:29:51.572Z,2.45
2022-09-03T11:32:18.083Z,2.20
2022-09-03T11:34:50.042Z,2.60
2022-09-03T11:37:23.953Z,2.60
2022-09-03T11:40:04.061Z,2.83
2022-09-03T11:45:19.100Z,2.47
2022-09-03T11:47:47.002Z,3.33
2022-09-03T11:50:20.950Z,2.03
2022-09-03T11:52:51.741Z,1.70
2022-09-03T11:55:42.272Z,3.88
2022-09-03T11:58:12.127Z,2.20
2022-09-03T12:00:40.946Z,2.10
2022-09-03T12:03:07.656Z,2.90
2022-09-03T12:05:50.189Z,2.17
2022-09-03T12:08:43.611Z,2.95
2022-09-03T12:11:53.076Z,1.65
2022-09-03T12:14:49.774Z,2.78
2022-09-03T12:17:31.896Z,2.22
2022-09-03T12:19:59.077Z,3.17
2022-09-03T12:22:29.515Z,1.67
2022-09-03T12:24:56.257Z,2.60
2022-09-03T12:27:27.106Z,1.80
2022-09-03T12:30:01.918Z,2.45
2022-09-03T12:32:37.058Z,2.53
2022-09-03T12:35:13.268Z,4.00
2022-09-03T12:40:30.650Z,1.50
2022-09-03T12:46:10.807Z,1.90
2022-09-03T12:48:40.448Z,1.35
2022-09-03T12:53:54.210Z,2.25
2022-09-03T12:56:21.513Z,2.40
2022-09-03T12:58:53.367Z,1.70
2022-09-03T13:01:25.251Z,2.22
2022-09-03T13:04:04.699Z,2.70
2022-09-03T13:06:51.214Z,1.85
2022-09-03T13:09:23.166Z,1.90
2022-09-03T13:11:54.005Z,2.13
2022-09-03T13:14:21.252Z,1.50
2022-09-03T13:16:54.254Z,1.80
2022-09-03T13:19:40.569Z,2.25
2022-09-03T13:22:30.958Z,1.90
2022-09-03T13:25:10.046Z,2.22
2022-09-03T13:28:02.543Z,1.98
2022-09-03T13:30:38.862Z,3.15
2022-09-03T13:33:11.960Z,1.75
2022-09-03T13:35:53.699Z,1.88
2022-09-03T13:38:41.916Z,1.50
2022-09-03T13:41:19.674Z,1.73
2022-09-03T13:43:59.437Z,2.22
2022-09-03T13:46:40.355Z,2.10
2022-09-03T13:49:39.440Z,2.08
2022-09-03T13:52:11.385Z,2.15
2022-09-03T13:54:49.028Z,3.13
2022-09-03T13:57:31.281Z,2.45
2022-09-03T14:00:13.442Z,2.40
2022-09-03T14:02:58.608Z,2.25
2022-09-03T14:05:41.674Z,1.23
2022-09-03T14:08:18.968Z,0.40
2022-09-03T14:10:52.812Z,2.50
2022-09-03T14:13:25.691Z,2.72
2022-09-03T14:16:06.508Z,5.20
2022-09-03T14:18:43.306Z,3.55
2022-09-03T14:21:29.722Z,4.70
2022-09-03T14:24:06.406Z,5.70
2022-09-03T14:26:42.008Z,3.17
2022-09-03T14:29:11.812Z,3.35
2022-09-03T14:32:10.972Z,7.45
2022-09-03T14:34:59.382Z,6.20
2022-09-03T14:41:09.207Z,1.60
2022-09-03T14:44:05.563Z,2.67
2022-09-03T14:46:38.652Z,1.33
2022-09-03T14:49:47.934Z,4.57
2022-09-03T14:52:29.895Z,3.00
2022-09-03T14:55:16.389Z,2.30
2022-09-03T14:58:21.930Z,3.65
2022-09-03T15:00:55.726Z,3.95
2022-09-03T15:03:33.740Z,2.72
2022-09-03T15:06:31.383Z,4.32
2022-09-03T15:09:17.899Z,2.33
2022-09-03T15:12:06.180Z,2.22
2022-09-03T15:14:55.203Z,1.15
2022-09-03T15:17:27.036Z,2.47
2022-09-03T15:20:18.886Z,3.58
2022-09-03T15:23:13.280Z,2.33
2022-09-03T15:25:52.135Z,2.85
2022-09-03T15:29:11.566Z,0.73
2022-09-03T15:32:04.828Z,1.58
2022-09-03T15:35:11.800Z,1.92
2022-09-03T15:38:00.495Z,1.08
2022-09-03T15:40:42.019Z,1.55
2022-09-03T15:43:12.846Z,1.23
2022-09-03T15:45:49.677Z,1.98
2022-09-03T15:48:20.707Z,3.10
2022-09-03T15:51:13.824Z,1.35
2022-09-03T15:53:50.326Z,1.50
2022-09-03T15:56:24.815Z,1.63
2022-09-03T15:59:06.147Z,3.10
2022-09-03T16:01:37.835Z,4.55
2022-09-03T16:04:27.223Z,4.88
2022-09-03T16:07:20.433Z,2.28
2022-09-03T16:10:24.356Z,7.50
2022-09-03T16:13:22.691Z,2.88
2022-09-03T16:16:03.314Z,7.70
2022-09-03T16:18:39.354Z,2.15
2022-09-03T16:21:10.896Z,2.08
2022-09-03T16:23:49.635Z,2.78
2022-09-03T16:26:24.171Z,3.60
2022-09-03T16:28:58.546Z,2.88
2022-09-03T16:31:28.894Z,1.80
2022-09-03T16:33:57.881Z,2.22
2022-09-03T16:37:03.622Z,3.60
2022-09-03T16:39:36.010Z,2.25
2022-09-03T16:42:11.117Z,2.17
2022-09-03T16:44:48.969Z,3.35
2022-09-03T16:47:22.211Z,2.47
2022-09-03T16:50:28.505Z,3.30
2022-09-03T16:53:20.007Z,2.55
2022-09-03T16:56:07.745Z,3.05
2022-09-03T16:58:59.097Z,2.58
2022-09-03T17:01:52.656Z,6.03
2022-09-03T17:04:40.731Z,2.35
2022-09-03T17:07:16.243Z,3.50
2022-09-03T17:09:58.471Z,2.20
2022-09-03T17:12:31.217Z,2.53
2022-09-03T17:15:04.717Z,2.20
2022-09-03T17:17:45.254Z,10.93
2022-09-03T17:20:33.405Z,2.63
2022-09-03T17:23:51.443Z,5.07
2022-09-03T17:26:31.059Z,2.03
2022-09-03T17:29:03.071Z,2.85
2022-09-03T17:31:52.106Z,3.60
2022-09-03T17:34:20.127Z,3.33
2022-09-03T17:37:05.217Z,2.90
2022-09-03T17:39:59.485Z,2.70
2022-09-03T17:42:55.877Z,2.72
2022-09-03T17:45:27.903Z,3.63
2022-09-03T17:48:07.169Z,4.22
2022-09-03T17:50:55.642Z,4.10
2022-09-03T17:53:27.033Z,3.67
2022-09-03T17:56:03.331Z,3.60
2022-09-03T17:58:40.632Z,3.08
2022-09-03T18:01:10.523Z,2.10
2022-09-03T18:03:46.238Z,4.85
2022-09-03T18:06:40.929Z,5.28
2022-09-03T18:09:17.502Z,2.78
2022-09-03T18:11:49.254Z,6.00
2022-09-03T18:14:40.773Z,4.72
2022-09-03T18:17:27.773Z,3.63
2022-09-03T18:20:19.351Z,6.30
2022-09-03T18:23:20.343Z,3.58
2022-09-03T18:26:09.787Z,5.13
2022-09-03T18:29:03.377Z,4.45
2022-09-03T18:31:48.729Z,3.47
2022-09-03T18:34:35.420Z,5.70
2022-09-03T18:37:21.972Z,4.38
2022-09-03T18:40:07.564Z,5.78
2022-09-03T18:43:09.634Z,3.50
2022-09-03T18:49:16.058Z,22.73
2022-09-03T18:52:25.813Z,45.40
2022-09-03T18:55:23.324Z,3.53
2022-09-03T18:58:25.009Z,4.07
2022-09-03T19:01:49.656Z,3.63
2022-09-03T19:04:59.491Z,5.15
2022-09-03T19:07:59.899Z,8.75
2022-09-03T19:11:12.891Z,10.15
2022-09-03T19:13:59.379Z,8.82
2022-09-03T19:17:00.298Z,11.40
2022-09-03T19:20:01.425Z,15.65
2022-09-03T19:22:57.294Z,12.30
2022-09-03T19:25:45.730Z,14.90
2022-09-03T19:28:43.441Z,11.40
2022-09-03T19:31:57.163Z,188.38
2022-09-03T19:35:07.915Z,80.55
2022-09-03T19:38:16.861Z,8.85
2022-09-03T19:41:17.244Z,17.42
2022-09-03T19:44:37.140Z,14.95
2022-09-03T19:47:23.423Z,85.65
2022-09-03T19:50:21.457Z,71.50
2022-09-03T19:53:34.210Z,6.75
2022-09-03T19:56:23.461Z,5.50
2022-09-03T19:59:15.080Z,6.80
2022-09-03T20:02:00.877Z,6.70
2022-09-03T20:04:50.934Z,6.40
2022-09-03T20:07:36.860Z,91.68
2022-09-03T20:10:24.226Z,37.70
2022-09-03T20:13:13.718Z,19.52
2022-09-03T20:16:07.446Z,13.10
2022-09-03T20:18:51.227Z,10.48
2022-09-03T20:21:25.200Z,14.98
2022-09-03T20:23:56.261Z,4.55
2022-09-03T20:26:51.227Z,5.82
2022-09-03T20:29:24.662Z,67.55
2022-09-03T20:32:17.569Z,36.55
2022-09-03T20:34:58.879Z,22.05
2022-09-03T20:37:31.881Z,30.00
2022-09-03T20:40:26.959Z,29.30
2022-09-03T20:43:25.180Z,24.23
2022-09-03T20:46:07.832Z,17.33
2022-09-03T20:49:05.131Z,23.98
2022-09-03T20:51:41.077Z,45.05
2022-09-03T20:54:18.478Z,35.30
2022-09-03T20:57:24.299Z,49.40
2022-09-03T21:00:00.558Z,53.90
2022-09-03T21:02:48.476Z,36.85
2022-09-03T21:05:38.641Z,30.67
2022-09-03T21:08:36.002Z,26.38
2022-09-03T21:11:17.146Z,36.88
2022-09-03T21:13:59.266Z,18.38
2022-09-03T21:16:46.242Z,26.45
2022-09-03T21:19:26.343Z,13.90
2022-09-03T21:22:01.532Z,8.02
2022-09-03T21:24:57.059Z,15.68
2022-09-03T21:27:32.561Z,22.48
2022-09-03T21:30:03.317Z,23.70
2022-09-03T21:32:46.449Z,17.20
2022-09-03T21:35:38.930Z,16.40
2022-09-03T21:38:18.947Z,39.53
2022-09-03T21:43:36.230Z,14.80
2022-09-03T21:46:15.971Z,18.48
2022-09-03T21:48:51.759Z,17.20
2022-09-03T21:51:53.661Z,13.07
2022-09-03T21:54:29.413Z,13.60
2022-09-03T21:57:00.683Z,13.05
2022-09-03T21:59:31.498Z,12.63
2022-09-03T22:02:30.132Z,11.40
2022-09-03T22:04:58.768Z,15.27
2022-09-03T22:07:46.184Z,12.30
2022-09-03T22:11:17.781Z,13.32
2022-09-03T22:13:56.807Z,10.77
2022-09-03T22:16:31.511Z,15.43
2022-09-03T22:19:02.429Z,10.38
2022-09-03T22:21:50.337Z,11.80
2022-09-03T22:24:26.816Z,12.55
2022-09-03T22:26:58.435Z,10.93
2022-09-03T22:29:50.347Z,9.57
2022-09-03T22:32:36.876Z,14.82
2022-09-03T22:35:11.064Z,12.93
2022-09-03T22:37:45.299Z,13.63
2022-09-03T22:40:24.247Z,11.80
2022-09-03T22:43:24.524Z,15.82
2022-09-03T22:46:11.050Z,12.10
2022-09-03T22:48:58.643Z,12.50
2022-09-03T22:51:29.027Z,14.25
2022-09-03T22:54:20.199Z,20.52
2022-09-03T22:56:48.151Z,20.90
2022-09-03T22:59:26.781Z,16.73
2022-09-03T23:02:03.675Z,22.25
2022-09-03T23:04:49.760Z,20.88
2022-09-03T23:07:19.954Z,25.10
2022-09-03T23:09:55.144Z,41.25
2022-09-03T23:12:53.222Z,63.35
2022-09-03T23:15:33.196Z,44.55
2022-09-03T23:18:10.968Z,31.67
2022-09-03T23:20:45.619Z,125.80
2022-09-03T23:25:55.725Z,134.73
2022-09-03T23:28:29.450Z,68.32
2022-09-03T23:31:11.190Z,73.60
2022-09-03T23:33:37.810Z,46.05
2022-09-03T23:36:37.510Z,37.38
2022-09-03T23:39:32.440Z,102.65
2022-09-03T23:42:14.909Z,34.90
2022-09-03T23:44:57.123Z,95.50
2022-09-03T23:47:35.175Z,44.22
2022-09-03T23:50:24.580Z,43.30
2022-09-03T23:53:50.946Z,30.65
2022-09-03T23:56:35.632Z,23.40
2022-09-03T23:59:26.959Z,28.85
